sensor_id;sensor_type;location;lat;lon;timestamp;P1;durP1;ratioP1;P2;durP2;ratioP2
64601;SDS011;68371;42.630;23.192;2023-05-20T00:00:18;11.27;;;5.82;;
64601;SDS011;68371;42.630;23.192;2023-05-20T00:02:44;11.70;;;5.82;;
64601;SDS011;68371;42.630;23.192;2023-05-20T00:05:11;8.73;;;6.53;;
64601;SDS011;68371;42.630;23.192;2023-05-20T00:07:40;10.38;;;5.25;;
64601;SDS011;68371;42.630;23.192;2023-05-20T00:10:09;18.30;;;5.95;;
64601;SDS011;68371;42.630;23.192;2023-05-20T00:12:36;8.70;;;5.68;;
64601;SDS011;68371;42.630;23.192;2023-05-20T00:15:04;11.18;;;5.55;;
64601;SDS011;68371;42.630;23.192;2023-05-20T00:17:31;9.57;;;5.50;;
64601;SDS011;68371;42.630;23.192;2023-05-20T00:19:58;13.20;;;5.30;;
64601;SDS011;68371;42.630;23.192;2023-05-20T00:22:24;8.23;;;5.70;;
64601;SDS011;68371;42.630;23.192;2023-05-20T00:24:52;10.10;;;5.55;;
64601;SDS011;68371;42.630;23.192;2023-05-20T00:27:19;10.90;;;5.47;;
64601;SDS011;68371;42.630;23.192;2023-05-20T00:29:46;8.98;;;5.40;;
64601;SDS011;68371;42.630;23.192;2023-05-20T00:32:12;10.02;;;5.50;;
64601;SDS011;68371;42.630;23.192;2023-05-20T00:34:42;7.88;;;5.15;;
64601;SDS011;68371;42.630;23.192;2023-05-20T00:37:10;12.40;;;6.05;;
64601;SDS011;68371;42.630;23.192;2023-05-20T00:39:37;8.30;;;5.60;;
64601;SDS011;68371;42.630;23.192;2023-05-20T00:42:05;12.75;;;5.75;;
64601;SDS011;68371;42.630;23.192;2023-05-20T00:44:32;14.93;;;5.55;;
64601;SDS011;68371;42.630;23.192;2023-05-20T00:46:58;9.52;;;5.80;;
64601;SDS011;68371;42.630;23.192;2023-05-20T00:49:26;12.10;;;5.50;;
64601;SDS011;68371;42.630;23.192;2023-05-20T00:51:53;9.63;;;5.78;;
64601;SDS011;68371;42.630;23.192;2023-05-20T00:54:20;9.05;;;5.50;;
64601;SDS011;68371;42.630;23.192;2023-05-20T00:56:47;11.68;;;6.40;;
64601;SDS011;68371;42.630;23.192;2023-05-20T00:59:17;12.90;;;6.13;;
64601;SDS011;68371;42.630;23.192;2023-05-20T01:01:48;17.45;;;6.35;;
64601;SDS011;68371;42.630;23.192;2023-05-20T01:04:14;11.68;;;6.00;;
64601;SDS011;68371;42.630;23.192;2023-05-20T01:06:43;13.13;;;5.43;;
64601;SDS011;68371;42.630;23.192;2023-05-20T01:09:12;9.30;;;5.95;;
64601;SDS011;68371;42.630;23.192;2023-05-20T01:11:40;11.55;;;6.05;;
64601;SDS011;68371;42.630;23.192;2023-05-20T01:14:10;10.10;;;6.05;;
64601;SDS011;68371;42.630;23.192;2023-05-20T01:16:39;17.35;;;6.78;;
64601;SDS011;68371;42.630;23.192;2023-05-20T01:19:15;12.02;;;6.57;;
64601;SDS011;68371;42.630;23.192;2023-05-20T01:21:47;11.90;;;6.32;;
64601;SDS011;68371;42.630;23.192;2023-05-20T01:24:19;13.18;;;7.07;;
64601;SDS011;68371;42.630;23.192;2023-05-20T01:26:47;12.45;;;6.40;;
64601;SDS011;68371;42.630;23.192;2023-05-20T01:29:14;12.73;;;6.68;;
64601;SDS011;68371;42.630;23.192;2023-05-20T01:31:44;14.40;;;6.22;;
64601;SDS011;68371;42.630;23.192;2023-05-20T01:34:14;16.67;;;6.45;;
64601;SDS011;68371;42.630;23.192;2023-05-20T01:36:43;14.18;;;6.30;;
64601;SDS011;68371;42.630;23.192;2023-05-20T01:39:11;10.68;;;5.85;;
64601;SDS011;68371;42.630;23.192;2023-05-20T01:41:40;12.13;;;5.55;;
64601;SDS011;68371;42.630;23.192;2023-05-20T01:44:07;10.60;;;5.85;;
64601;SDS011;68371;42.630;23.192;2023-05-20T01:46:35;10.13;;;6.03;;
64601;SDS011;68371;42.630;23.192;2023-05-20T01:49:01;10.25;;;5.75;;
64601;SDS011;68371;42.630;23.192;2023-05-20T01:51:28;8.98;;;5.55;;
64601;SDS011;68371;42.630;23.192;2023-05-20T01:53:57;12.07;;;6.25;;
64601;SDS011;68371;42.630;23.192;2023-05-20T01:56:24;7.82;;;5.50;;
64601;SDS011;68371;42.630;23.192;2023-05-20T01:58:52;10.27;;;6.28;;
64601;SDS011;68371;42.630;23.192;2023-05-20T02:01:19;8.88;;;5.75;;
64601;SDS011;68371;42.630;23.192;2023-05-20T02:03:46;10.38;;;6.15;;
64601;SDS011;68371;42.630;23.192;2023-05-20T02:06:13;11.25;;;6.50;;
64601;SDS011;68371;42.630;23.192;2023-05-20T02:08:39;13.30;;;6.25;;
64601;SDS011;68371;42.630;23.192;2023-05-20T02:11:06;10.30;;;6.00;;
64601;SDS011;68371;42.630;23.192;2023-05-20T02:13:33;9.20;;;5.55;;
64601;SDS011;68371;42.630;23.192;2023-05-20T02:16:01;12.13;;;6.38;;
64601;SDS011;68371;42.630;23.192;2023-05-20T02:18:27;10.73;;;5.80;;
64601;SDS011;68371;42.630;23.192;2023-05-20T02:20:54;11.13;;;7.03;;
64601;SDS011;68371;42.630;23.192;2023-05-20T02:23:21;11.02;;;6.93;;
64601;SDS011;68371;42.630;23.192;2023-05-20T02:25:47;11.45;;;6.75;;
64601;SDS011;68371;42.630;23.192;2023-05-20T02:28:16;12.93;;;6.25;;
64601;SDS011;68371;42.630;23.192;2023-05-20T02:30:42;14.90;;;6.15;;
64601;SDS011;68371;42.630;23.192;2023-05-20T02:33:10;10.02;;;6.00;;
64601;SDS011;68371;42.630;23.192;2023-05-20T02:35:37;10.80;;;6.13;;
64601;SDS011;68371;42.630;23.192;2023-05-20T02:38:04;13.13;;;6.05;;
64601;SDS011;68371;42.630;23.192;2023-05-20T02:40:31;11.05;;;6.05;;
64601;SDS011;68371;42.630;23.192;2023-05-20T02:42:58;13.32;;;6.50;;
64601;SDS011;68371;42.630;23.192;2023-05-20T02:45:25;13.60;;;6.90;;
64601;SDS011;68371;42.630;23.192;2023-05-20T02:47:52;10.55;;;6.35;;
64601;SDS011;68371;42.630;23.192;2023-05-20T02:50:22;11.98;;;6.65;;
64601;SDS011;68371;42.630;23.192;2023-05-20T02:52:49;10.50;;;6.32;;
64601;SDS011;68371;42.630;23.192;2023-05-20T02:55:17;11.85;;;5.93;;
64601;SDS011;68371;42.630;23.192;2023-05-20T02:57:44;10.02;;;5.93;;
64601;SDS011;68371;42.630;23.192;2023-05-20T03:00:11;11.50;;;5.60;;
64601;SDS011;68371;42.630;23.192;2023-05-20T03:02:38;11.65;;;6.00;;
64601;SDS011;68371;42.630;23.192;2023-05-20T03:05:05;11.02;;;6.05;;
64601;SDS011;68371;42.630;23.192;2023-05-20T03:07:34;16.58;;;6.03;;
64601;SDS011;68371;42.630;23.192;2023-05-20T03:10:01;9.80;;;5.97;;
64601;SDS011;68371;42.630;23.192;2023-05-20T03:12:29;9.15;;;6.00;;
64601;SDS011;68371;42.630;23.192;2023-05-20T03:14:56;12.73;;;5.97;;
64601;SDS011;68371;42.630;23.192;2023-05-20T03:17:23;12.50;;;5.78;;
64601;SDS011;68371;42.630;23.192;2023-05-20T03:19:50;14.55;;;6.13;;
64601;SDS011;68371;42.630;23.192;2023-05-20T03:22:16;14.80;;;5.72;;
64601;SDS011;68371;42.630;23.192;2023-05-20T03:24:45;13.13;;;5.32;;
64601;SDS011;68371;42.630;23.192;2023-05-20T03:27:12;15.65;;;6.28;;
64601;SDS011;68371;42.630;23.192;2023-05-20T03:29:39;16.70;;;5.40;;
64601;SDS011;68371;42.630;23.192;2023-05-20T03:32:06;8.80;;;5.25;;
64601;SDS011;68371;42.630;23.192;2023-05-20T03:34:33;10.65;;;5.93;;
64601;SDS011;68371;42.630;23.192;2023-05-20T03:37:00;11.57;;;5.30;;
64601;SDS011;68371;42.630;23.192;2023-05-20T03:39:26;11.07;;;5.60;;
64601;SDS011;68371;42.630;23.192;2023-05-20T03:41:56;10.60;;;5.80;;
64601;SDS011;68371;42.630;23.192;2023-05-20T03:44:22;8.20;;;5.68;;
64601;SDS011;68371;42.630;23.192;2023-05-20T03:46:54;12.05;;;5.50;;
64601;SDS011;68371;42.630;23.192;2023-05-20T03:49:21;9.80;;;5.70;;
64601;SDS011;68371;42.630;23.192;2023-05-20T03:51:48;8.98;;;5.00;;
64601;SDS011;68371;42.630;23.192;2023-05-20T03:54:14;13.38;;;6.70;;
64601;SDS011;68371;42.630;23.192;2023-05-20T03:56:41;20.65;;;6.22;;
64601;SDS011;68371;42.630;23.192;2023-05-20T03:59:12;12.02;;;5.78;;
64601;SDS011;68371;42.630;23.192;2023-05-20T04:01:39;11.88;;;5.97;;
64601;SDS011;68371;42.630;23.192;2023-05-20T04:04:05;11.77;;;7.00;;
64601;SDS011;68371;42.630;23.192;2023-05-20T04:06:32;15.02;;;7.88;;
64601;SDS011;68371;42.630;23.192;2023-05-20T04:09:00;14.82;;;8.23;;
64601;SDS011;68371;42.630;23.192;2023-05-20T04:11:26;48.22;;;25.02;;
64601;SDS011;68371;42.630;23.192;2023-05-20T04:13:53;113.45;;;51.63;;
64601;SDS011;68371;42.630;23.192;2023-05-20T04:16:23;36.13;;;19.08;;
64601;SDS011;68371;42.630;23.192;2023-05-20T04:18:53;33.22;;;18.63;;
64601;SDS011;68371;42.630;23.192;2023-05-20T04:21:23;25.17;;;14.57;;
64601;SDS011;68371;42.630;23.192;2023-05-20T04:23:53;17.67;;;9.38;;
64601;SDS011;68371;42.630;23.192;2023-05-20T04:26:21;13.57;;;8.68;;
64601;SDS011;68371;42.630;23.192;2023-05-20T04:28:48;14.02;;;7.63;;
64601;SDS011;68371;42.630;23.192;2023-05-20T04:31:15;14.27;;;8.55;;
64601;SDS011;68371;42.630;23.192;2023-05-20T04:33:44;11.90;;;7.30;;
64601;SDS011;68371;42.630;23.192;2023-05-20T04:36:10;9.65;;;6.00;;
64601;SDS011;68371;42.630;23.192;2023-05-20T04:38:40;12.88;;;6.70;;
64601;SDS011;68371;42.630;23.192;2023-05-20T04:41:08;9.38;;;5.68;;
64601;SDS011;68371;42.630;23.192;2023-05-20T04:43:35;10.65;;;5.97;;
64601;SDS011;68371;42.630;23.192;2023-05-20T04:46:04;9.55;;;6.10;;
64601;SDS011;68371;42.630;23.192;2023-05-20T04:48:31;9.23;;;5.90;;
64601;SDS011;68371;42.630;23.192;2023-05-20T04:50:59;10.70;;;5.72;;
64601;SDS011;68371;42.630;23.192;2023-05-20T04:53:26;8.02;;;5.25;;
64601;SDS011;68371;42.630;23.192;2023-05-20T04:55:55;9.40;;;5.45;;
64601;SDS011;68371;42.630;23.192;2023-05-20T04:58:24;9.55;;;5.45;;
64601;SDS011;68371;42.630;23.192;2023-05-20T05:00:53;9.00;;;5.10;;
64601;SDS011;68371;42.630;23.192;2023-05-20T05:03:20;9.52;;;5.05;;
64601;SDS011;68371;42.630;23.192;2023-05-20T05:05:47;8.20;;;5.18;;
64601;SDS011;68371;42.630;23.192;2023-05-20T05:08:15;12.73;;;5.60;;
64601;SDS011;68371;42.630;23.192;2023-05-20T05:10:42;12.93;;;5.60;;
64601;SDS011;68371;42.630;23.192;2023-05-20T05:13:10;8.15;;;5.03;;
64601;SDS011;68371;42.630;23.192;2023-05-20T05:15:37;9.15;;;5.10;;
64601;SDS011;68371;42.630;23.192;2023-05-20T05:18:04;8.32;;;5.05;;
64601;SDS011;68371;42.630;23.192;2023-05-20T05:20:30;10.77;;;5.63;;
64601;SDS011;68371;42.630;23.192;2023-05-20T05:22:57;8.93;;;5.45;;
64601;SDS011;68371;42.630;23.192;2023-05-20T05:25:29;9.32;;;5.45;;
64601;SDS011;68371;42.630;23.192;2023-05-20T05:27:56;8.27;;;5.45;;
64601;SDS011;68371;42.630;23.192;2023-05-20T05:30:24;7.03;;;4.55;;
64601;SDS011;68371;42.630;23.192;2023-05-20T05:32:52;9.13;;;5.68;;
64601;SDS011;68371;42.630;23.192;2023-05-20T05:35:18;9.63;;;6.07;;
64601;SDS011;68371;42.630;23.192;2023-05-20T05:37:45;8.82;;;5.78;;
64601;SDS011;68371;42.630;23.192;2023-05-20T05:40:12;9.65;;;5.82;;
64601;SDS011;68371;42.630;23.192;2023-05-20T05:42:40;16.90;;;6.07;;
64601;SDS011;68371;42.630;23.192;2023-05-20T05:45:07;9.25;;;5.55;;
64601;SDS011;68371;42.630;23.192;2023-05-20T05:47:35;8.85;;;6.10;;
64601;SDS011;68371;42.630;23.192;2023-05-20T05:50:02;11.13;;;5.75;;
64601;SDS011;68371;42.630;23.192;2023-05-20T05:52:28;11.90;;;5.55;;
64601;SDS011;68371;42.630;23.192;2023-05-20T05:54:57;8.05;;;4.82;;
64601;SDS011;68371;42.630;23.192;2023-05-20T05:57:24;11.65;;;5.53;;
64601;SDS011;68371;42.630;23.192;2023-05-20T05:59:52;11.32;;;6.10;;
64601;SDS011;68371;42.630;23.192;2023-05-20T06:02:18;9.18;;;5.78;;
64601;SDS011;68371;42.630;23.192;2023-05-20T06:04:45;10.23;;;6.47;;
64601;SDS011;68371;42.630;23.192;2023-05-20T06:07:12;11.35;;;6.55;;
64601;SDS011;68371;42.630;23.192;2023-05-20T06:09:38;10.63;;;5.70;;
64601;SDS011;68371;42.630;23.192;2023-05-20T06:12:05;11.25;;;6.63;;
64601;SDS011;68371;42.630;23.192;2023-05-20T06:14:32;9.82;;;5.90;;
64601;SDS011;68371;42.630;23.192;2023-05-20T06:17:01;17.10;;;6.60;;
64601;SDS011;68371;42.630;23.192;2023-05-20T06:19:31;12.50;;;7.20;;
64601;SDS011;68371;42.630;23.192;2023-05-20T06:21:58;12.90;;;6.97;;
64601;SDS011;68371;42.630;23.192;2023-05-20T06:24:24;11.75;;;6.72;;
64601;SDS011;68371;42.630;23.192;2023-05-20T06:26:51;14.48;;;5.95;;
64601;SDS011;68371;42.630;23.192;2023-05-20T06:29:18;11.43;;;7.10;;
64601;SDS011;68371;42.630;23.192;2023-05-20T06:31:44;13.52;;;7.10;;
64601;SDS011;68371;42.630;23.192;2023-05-20T06:34:13;15.45;;;7.20;;
64601;SDS011;68371;42.630;23.192;2023-05-20T06:36:39;12.98;;;7.18;;
64601;SDS011;68371;42.630;23.192;2023-05-20T06:39:06;13.30;;;7.38;;
64601;SDS011;68371;42.630;23.192;2023-05-20T06:41:36;13.90;;;7.38;;
64601;SDS011;68371;42.630;23.192;2023-05-20T06:44:03;11.02;;;7.03;;
64601;SDS011;68371;42.630;23.192;2023-05-20T06:46:30;14.52;;;7.90;;
64601;SDS011;68371;42.630;23.192;2023-05-20T06:48:59;11.60;;;6.72;;
64601;SDS011;68371;42.630;23.192;2023-05-20T06:51:27;15.43;;;6.88;;
64601;SDS011;68371;42.630;23.192;2023-05-20T06:53:54;12.77;;;6.85;;
64601;SDS011;68371;42.630;23.192;2023-05-20T06:56:21;12.00;;;6.72;;
64601;SDS011;68371;42.630;23.192;2023-05-20T06:58:47;9.38;;;6.63;;
64601;SDS011;68371;42.630;23.192;2023-05-20T07:01:14;12.80;;;6.28;;
64601;SDS011;68371;42.630;23.192;2023-05-20T07:03:41;10.57;;;6.93;;
64601;SDS011;68371;42.630;23.192;2023-05-20T07:06:08;13.30;;;6.55;;
64601;SDS011;68371;42.630;23.192;2023-05-20T07:08:36;10.38;;;5.25;;
64601;SDS011;68371;42.630;23.192;2023-05-20T07:11:04;12.20;;;5.97;;
64601;SDS011;68371;42.630;23.192;2023-05-20T07:13:31;9.45;;;5.63;;
64601;SDS011;68371;42.630;23.192;2023-05-20T07:15:59;10.05;;;5.13;;
64601;SDS011;68371;42.630;23.192;2023-05-20T07:18:26;10.25;;;5.68;;
64601;SDS011;68371;42.630;23.192;2023-05-20T07:20:52;7.95;;;4.75;;
64601;SDS011;68371;42.630;23.192;2023-05-20T07:23:20;8.75;;;4.78;;
64601;SDS011;68371;42.630;23.192;2023-05-20T07:25:48;9.25;;;4.25;;
64601;SDS011;68371;42.630;23.192;2023-05-20T07:28:15;6.97;;;4.50;;
64601;SDS011;68371;42.630;23.192;2023-05-20T07:30:42;9.02;;;5.03;;
64601;SDS011;68371;42.630;23.192;2023-05-20T07:33:15;7.10;;;4.57;;
64601;SDS011;68371;42.630;23.192;2023-05-20T07:35:42;9.45;;;4.43;;
64601;SDS011;68371;42.630;23.192;2023-05-20T07:38:09;10.57;;;4.38;;
64601;SDS011;68371;42.630;23.192;2023-05-20T07:40:36;6.82;;;4.53;;
64601;SDS011;68371;42.630;23.192;2023-05-20T07:43:06;8.05;;;4.55;;
64601;SDS011;68371;42.630;23.192;2023-05-20T07:45:35;7.88;;;4.78;;
64601;SDS011;68371;42.630;23.192;2023-05-20T07:48:02;20.98;;;5.05;;
64601;SDS011;68371;42.630;23.192;2023-05-20T07:50:32;9.40;;;4.80;;
64601;SDS011;68371;42.630;23.192;2023-05-20T07:53:01;8.40;;;4.85;;
64601;SDS011;68371;42.630;23.192;2023-05-20T07:55:27;7.05;;;5.07;;
64601;SDS011;68371;42.630;23.192;2023-05-20T07:57:55;11.77;;;5.07;;
64601;SDS011;68371;42.630;23.192;2023-05-20T08:00:23;7.63;;;5.00;;
64601;SDS011;68371;42.630;23.192;2023-05-20T08:02:50;7.65;;;4.10;;
64601;SDS011;68371;42.630;23.192;2023-05-20T08:05:17;9.90;;;4.90;;
64601;SDS011;68371;42.630;23.192;2023-05-20T08:07:43;7.43;;;5.10;;
64601;SDS011;68371;42.630;23.192;2023-05-20T08:10:10;17.50;;;4.72;;
64601;SDS011;68371;42.630;23.192;2023-05-20T08:12:37;8.75;;;4.55;;
64601;SDS011;68371;42.630;23.192;2023-05-20T08:15:04;7.82;;;4.53;;
64601;SDS011;68371;42.630;23.192;2023-05-20T08:17:38;12.13;;;4.35;;
64601;SDS011;68371;42.630;23.192;2023-05-20T08:20:07;7.40;;;4.63;;
64601;SDS011;68371;42.630;23.192;2023-05-20T08:22:37;12.57;;;4.80;;
64601;SDS011;68371;42.630;23.192;2023-05-20T08:25:06;7.25;;;4.82;;
64601;SDS011;68371;42.630;23.192;2023-05-20T08:30:04;10.35;;;4.97;;
64601;SDS011;68371;42.630;23.192;2023-05-20T08:32:33;9.82;;;5.15;;
64601;SDS011;68371;42.630;23.192;2023-05-20T08:35:02;10.73;;;4.43;;
64601;SDS011;68371;42.630;23.192;2023-05-20T08:37:29;6.90;;;4.72;;
64601;SDS011;68371;42.630;23.192;2023-05-20T08:39:56;8.50;;;5.20;;
64601;SDS011;68371;42.630;23.192;2023-05-20T08:42:22;7.38;;;4.32;;
64601;SDS011;68371;42.630;23.192;2023-05-20T08:44:51;9.27;;;5.03;;
64601;SDS011;68371;42.630;23.192;2023-05-20T08:47:19;11.35;;;4.80;;
64601;SDS011;68371;42.630;23.192;2023-05-20T08:49:46;7.53;;;4.75;;
64601;SDS011;68371;42.630;23.192;2023-05-20T08:52:14;8.73;;;5.03;;
64601;SDS011;68371;42.630;23.192;2023-05-20T08:54:43;8.70;;;4.95;;
64601;SDS011;68371;42.630;23.192;2023-05-20T08:57:11;8.20;;;5.03;;
64601;SDS011;68371;42.630;23.192;2023-05-20T08:59:40;8.90;;;5.40;;
64601;SDS011;68371;42.630;23.192;2023-05-20T09:02:11;7.57;;;5.30;;
64601;SDS011;68371;42.630;23.192;2023-05-20T09:04:39;7.90;;;5.22;;
64601;SDS011;68371;42.630;23.192;2023-05-20T09:07:06;9.15;;;6.30;;
64601;SDS011;68371;42.630;23.192;2023-05-20T09:09:36;8.35;;;5.47;;
64601;SDS011;68371;42.630;23.192;2023-05-20T09:12:05;12.30;;;5.38;;
64601;SDS011;68371;42.630;23.192;2023-05-20T09:14:32;13.40;;;5.68;;
64601;SDS011;68371;42.630;23.192;2023-05-20T09:16:59;10.30;;;5.38;;
64601;SDS011;68371;42.630;23.192;2023-05-20T09:19:26;14.93;;;6.45;;
64601;SDS011;68371;42.630;23.192;2023-05-20T09:21:53;8.75;;;5.03;;
64601;SDS011;68371;42.630;23.192;2023-05-20T09:24:22;8.43;;;4.85;;
64601;SDS011;68371;42.630;23.192;2023-05-20T09:26:51;8.43;;;5.35;;
64601;SDS011;68371;42.630;23.192;2023-05-20T09:29:18;12.70;;;5.05;;
64601;SDS011;68371;42.630;23.192;2023-05-20T09:31:45;9.93;;;5.00;;
64601;SDS011;68371;42.630;23.192;2023-05-20T09:34:12;8.10;;;5.18;;
64601;SDS011;68371;42.630;23.192;2023-05-20T09:36:41;8.90;;;5.20;;
64601;SDS011;68371;42.630;23.192;2023-05-20T09:39:11;9.07;;;5.70;;
64601;SDS011;68371;42.630;23.192;2023-05-20T09:41:43;9.65;;;5.10;;
64601;SDS011;68371;42.630;23.192;2023-05-20T09:44:20;7.93;;;4.70;;
64601;SDS011;68371;42.630;23.192;2023-05-20T09:46:47;7.57;;;4.72;;
64601;SDS011;68371;42.630;23.192;2023-05-20T09:49:16;10.82;;;5.40;;
64601;SDS011;68371;42.630;23.192;2023-05-20T09:51:45;9.68;;;5.35;;
64601;SDS011;68371;42.630;23.192;2023-05-20T09:54:13;8.52;;;5.10;;
64601;SDS011;68371;42.630;23.192;2023-05-20T09:56:42;8.93;;;5.30;;
64601;SDS011;68371;42.630;23.192;2023-05-20T09:59:12;8.45;;;5.03;;
64601;SDS011;68371;42.630;23.192;2023-05-20T10:01:43;8.77;;;4.60;;
64601;SDS011;68371;42.630;23.192;2023-05-20T10:04:11;9.85;;;4.85;;
64601;SDS011;68371;42.630;23.192;2023-05-20T10:06:55;9.27;;;4.88;;
64601;SDS011;68371;42.630;23.192;2023-05-20T10:09:42;7.75;;;4.43;;
64601;SDS011;68371;42.630;23.192;2023-05-20T10:12:23;9.70;;;4.80;;
64601;SDS011;68371;42.630;23.192;2023-05-20T10:15:03;7.82;;;4.78;;
64601;SDS011;68371;42.630;23.192;2023-05-20T10:17:40;7.63;;;5.30;;
64601;SDS011;68371;42.630;23.192;2023-05-20T10:20:12;10.65;;;4.47;;
64601;SDS011;68371;42.630;23.192;2023-05-20T10:22:39;7.20;;;4.63;;
64601;SDS011;68371;42.630;23.192;2023-05-20T10:25:10;9.85;;;4.43;;
64601;SDS011;68371;42.630;23.192;2023-05-20T10:27:50;7.97;;;4.72;;
64601;SDS011;68371;42.630;23.192;2023-05-20T10:30:17;7.90;;;4.57;;
64601;SDS011;68371;42.630;23.192;2023-05-20T10:32:51;8.38;;;5.07;;
64601;SDS011;68371;42.630;23.192;2023-05-20T10:35:20;9.15;;;4.60;;
64601;SDS011;68371;42.630;23.192;2023-05-20T10:37:50;7.63;;;4.32;;
64601;SDS011;68371;42.630;23.192;2023-05-20T10:40:18;8.32;;;4.32;;
64601;SDS011;68371;42.630;23.192;2023-05-20T10:42:46;16.10;;;6.57;;
64601;SDS011;68371;42.630;23.192;2023-05-20T10:45:23;5.90;;;4.05;;
64601;SDS011;68371;42.630;23.192;2023-05-20T10:47:54;6.88;;;3.92;;
64601;SDS011;68371;42.630;23.192;2023-05-20T10:52:51;8.48;;;3.60;;
64601;SDS011;68371;42.630;23.192;2023-05-20T10:55:18;4.40;;;3.25;;
64601;SDS011;68371;42.630;23.192;2023-05-20T10:57:47;5.72;;;3.63;;
64601;SDS011;68371;42.630;23.192;2023-05-20T11:00:14;6.38;;;3.90;;
64601;SDS011;68371;42.630;23.192;2023-05-20T11:02:43;6.32;;;3.63;;
64601;SDS011;68371;42.630;23.192;2023-05-20T11:05:13;9.02;;;3.97;;
64601;SDS011;68371;42.630;23.192;2023-05-20T11:07:45;5.35;;;3.10;;
64601;SDS011;68371;42.630;23.192;2023-05-20T11:10:15;8.25;;;3.60;;
64601;SDS011;68371;42.630;23.192;2023-05-20T11:12:45;5.75;;;3.78;;
64601;SDS011;68371;42.630;23.192;2023-05-20T11:15:14;6.88;;;3.83;;
64601;SDS011;68371;42.630;23.192;2023-05-20T11:17:50;6.07;;;3.25;;
64601;SDS011;68371;42.630;23.192;2023-05-20T11:20:19;6.20;;;3.38;;
64601;SDS011;68371;42.630;23.192;2023-05-20T11:22:48;6.25;;;3.70;;
64601;SDS011;68371;42.630;23.192;2023-05-20T11:25:15;4.85;;;3.78;;
64601;SDS011;68371;42.630;23.192;2023-05-20T11:27:43;7.68;;;4.03;;
64601;SDS011;68371;42.630;23.192;2023-05-20T11:30:10;6.43;;;4.00;;
64601;SDS011;68371;42.630;23.192;2023-05-20T11:32:41;5.82;;;3.60;;
64601;SDS011;68371;42.630;23.192;2023-05-20T11:35:22;7.32;;;3.90;;
64601;SDS011;68371;42.630;23.192;2023-05-20T11:37:54;6.88;;;3.92;;
64601;SDS011;68371;42.630;23.192;2023-05-20T11:40:27;7.32;;;4.10;;
64601;SDS011;68371;42.630;23.192;2023-05-20T11:42:54;6.80;;;4.00;;
64601;SDS011;68371;42.630;23.192;2023-05-20T11:45:22;16.42;;;5.13;;
64601;SDS011;68371;42.630;23.192;2023-05-20T11:47:59;5.82;;;3.85;;
64601;SDS011;68371;42.630;23.192;2023-05-20T11:50:32;8.23;;;4.15;;
64601;SDS011;68371;42.630;23.192;2023-05-20T11:53:03;6.68;;;3.83;;
64601;SDS011;68371;42.630;23.192;2023-05-20T11:55:31;8.13;;;3.95;;
64601;SDS011;68371;42.630;23.192;2023-05-20T11:57:58;6.40;;;4.50;;
64601;SDS011;68371;42.630;23.192;2023-05-20T12:00:26;5.88;;;3.83;;
64601;SDS011;68371;42.630;23.192;2023-05-20T12:02:53;6.43;;;4.03;;
64601;SDS011;68371;42.630;23.192;2023-05-20T12:05:19;9.07;;;4.40;;
64601;SDS011;68371;42.630;23.192;2023-05-20T12:07:47;6.55;;;4.40;;
64601;SDS011;68371;42.630;23.192;2023-05-20T12:10:14;7.45;;;3.78;;
64601;SDS011;68371;42.630;23.192;2023-05-20T12:12:41;8.63;;;4.07;;
64601;SDS011;68371;42.630;23.192;2023-05-20T12:15:11;10.07;;;4.13;;
64601;SDS011;68371;42.630;23.192;2023-05-20T12:17:44;7.28;;;3.95;;
64601;SDS011;68371;42.630;23.192;2023-05-20T12:20:14;8.32;;;3.95;;
64601;SDS011;68371;42.630;23.192;2023-05-20T12:22:44;6.47;;;4.00;;
64601;SDS011;68371;42.630;23.192;2023-05-20T12:25:15;11.52;;;3.75;;
64601;SDS011;68371;42.630;23.192;2023-05-20T12:27:44;5.40;;;3.70;;
64601;SDS011;68371;42.630;23.192;2023-05-20T12:30:13;7.80;;;3.40;;
64601;SDS011;68371;42.630;23.192;2023-05-20T12:32:41;5.88;;;4.07;;
64601;SDS011;68371;42.630;23.192;2023-05-20T12:35:10;9.27;;;5.30;;
64601;SDS011;68371;42.630;23.192;2023-05-20T12:37:38;6.55;;;4.22;;
64601;SDS011;68371;42.630;23.192;2023-05-20T12:40:07;6.25;;;4.13;;
64601;SDS011;68371;42.630;23.192;2023-05-20T12:42:37;5.03;;;3.72;;
64601;SDS011;68371;42.630;23.192;2023-05-20T12:45:05;5.63;;;2.67;;
64601;SDS011;68371;42.630;23.192;2023-05-20T12:47:32;5.40;;;3.40;;
64601;SDS011;68371;42.630;23.192;2023-05-20T12:49:59;6.45;;;3.45;;
64601;SDS011;68371;42.630;23.192;2023-05-20T12:52:26;5.78;;;3.08;;
64601;SDS011;68371;42.630;23.192;2023-05-20T12:54:53;7.25;;;3.60;;
64601;SDS011;68371;42.630;23.192;2023-05-20T12:57:21;5.72;;;3.80;;
64601;SDS011;68371;42.630;23.192;2023-05-20T12:59:50;4.60;;;3.17;;
64601;SDS011;68371;42.630;23.192;2023-05-20T13:02:18;7.00;;;3.15;;
64601;SDS011;68371;42.630;23.192;2023-05-20T13:04:45;6.70;;;3.40;;
64601;SDS011;68371;42.630;23.192;2023-05-20T13:07:12;7.05;;;3.30;;
64601;SDS011;68371;42.630;23.192;2023-05-20T13:09:39;8.00;;;3.80;;
64601;SDS011;68371;42.630;23.192;2023-05-20T13:12:06;6.47;;;3.38;;
64601;SDS011;68371;42.630;23.192;2023-05-20T13:14:33;5.38;;;3.55;;
64601;SDS011;68371;42.630;23.192;2023-05-20T13:17:01;7.50;;;3.40;;
64601;SDS011;68371;42.630;23.192;2023-05-20T13:19:28;8.60;;;3.78;;
64601;SDS011;68371;42.630;23.192;2023-05-20T13:21:55;5.18;;;3.40;;
64601;SDS011;68371;42.630;23.192;2023-05-20T13:24:22;8.93;;;3.35;;
64601;SDS011;68371;42.630;23.192;2023-05-20T13:26:48;7.28;;;3.33;;
64601;SDS011;68371;42.630;23.192;2023-05-20T13:29:15;5.95;;;3.42;;
64601;SDS011;68371;42.630;23.192;2023-05-20T13:31:42;7.85;;;3.53;;
64601;SDS011;68371;42.630;23.192;2023-05-20T13:34:12;8.00;;;3.60;;
64601;SDS011;68371;42.630;23.192;2023-05-20T13:36:40;8.10;;;3.28;;
64601;SDS011;68371;42.630;23.192;2023-05-20T13:39:06;6.60;;;3.33;;
64601;SDS011;68371;42.630;23.192;2023-05-20T13:41:33;5.80;;;2.97;;
64601;SDS011;68371;42.630;23.192;2023-05-20T13:44:00;4.10;;;2.90;;
64601;SDS011;68371;42.630;23.192;2023-05-20T13:46:27;4.03;;;3.10;;
64601;SDS011;68371;42.630;23.192;2023-05-20T13:48:53;3.92;;;2.97;;
64601;SDS011;68371;42.630;23.192;2023-05-20T13:51:21;4.05;;;3.15;;
64601;SDS011;68371;42.630;23.192;2023-05-20T13:53:48;4.15;;;2.90;;
64601;SDS011;68371;42.630;23.192;2023-05-20T13:56:16;4.82;;;3.10;;
64601;SDS011;68371;42.630;23.192;2023-05-20T13:58:43;4.18;;;2.90;;
64601;SDS011;68371;42.630;23.192;2023-05-20T14:01:12;5.05;;;3.25;;
64601;SDS011;68371;42.630;23.192;2023-05-20T14:03:39;3.35;;;2.65;;
64601;SDS011;68371;42.630;23.192;2023-05-20T14:06:06;5.25;;;3.10;;
64601;SDS011;68371;42.630;23.192;2023-05-20T14:08:35;6.95;;;2.92;;
64601;SDS011;68371;42.630;23.192;2023-05-20T14:11:02;4.03;;;2.95;;
64601;SDS011;68371;42.630;23.192;2023-05-20T14:13:28;6.22;;;2.88;;
64601;SDS011;68371;42.630;23.192;2023-05-20T14:15:55;13.02;;;3.33;;
64601;SDS011;68371;42.630;23.192;2023-05-20T14:18:22;4.95;;;3.15;;
64601;SDS011;68371;42.630;23.192;2023-05-20T14:20:48;6.18;;;3.10;;
64601;SDS011;68371;42.630;23.192;2023-05-20T14:23:15;4.50;;;2.83;;
64601;SDS011;68371;42.630;23.192;2023-05-20T14:25:45;6.80;;;3.20;;
64601;SDS011;68371;42.630;23.192;2023-05-20T14:28:13;9.95;;;3.20;;
64601;SDS011;68371;42.630;23.192;2023-05-20T14:30:39;5.20;;;3.30;;
64601;SDS011;68371;42.630;23.192;2023-05-20T14:33:06;5.07;;;3.33;;
64601;SDS011;68371;42.630;23.192;2023-05-20T14:35:33;6.28;;;3.30;;
64601;SDS011;68371;42.630;23.192;2023-05-20T14:38:00;8.65;;;3.40;;